sensor_id;sensor_type;location;lat;lon;timestamp;pressure;altitude;pressure_sealevel;temperature;humidity
73101;BME280;61288;53.446;-2.266;2022-11-11T00:00:36;101461.88;;;13.11;81.60
73101;BME280;61288;53.446;-2.266;2022-11-11T00:03:03;101461.88;;;13.11;81.80
73101;BME280;61288;53.446;-2.266;2022-11-11T00:05:29;101461.97;;;13.10;81.78
73101;BME280;61288;53.446;-2.266;2022-11-11T00:07:56;101464.56;;;13.10;81.92
73101;BME280;61288;53.446;-2.266;2022-11-11T00:10:29;101472.38;;;13.10;82.01
73101;BME280;61288;53.446;-2.266;2022-11-11T00:13:03;101481.91;;;13.09;82.02
73101;BME280;61288;53.446;-2.266;2022-11-11T00:15:30;101481.88;;;13.11;82.01
73101;BME280;61288;53.446;-2.266;2022-11-11T00:17:56;101487.06;;;13.11;82.40
73101;BME280;61288;53.446;-2.266;2022-11-11T00:20:40;101485.31;;;13.11;82.21
73101;BME280;61288;53.446;-2.266;2022-11-11T00:23:26;101485.31;;;13.11;82.08
73101;BME280;61288;53.446;-2.266;2022-11-11T00:26:13;101490.47;;;13.13;82.08
73101;BME280;61288;53.446;-2.266;2022-11-11T00:28:39;101483.56;;;13.12;82.03
73101;BME280;61288;53.446;-2.266;2022-11-11T00:31:07;101492.16;;;13.14;81.83
73101;BME280;61288;53.446;-2.266;2022-11-11T00:33:32;101482.59;;;13.14;82.26
73101;BME280;61288;53.446;-2.266;2022-11-11T00:35:59;101482.66;;;13.13;82.26
73101;BME280;61288;53.446;-2.266;2022-11-11T00:38:26;101483.50;;;13.13;82.02
73101;BME280;61288;53.446;-2.266;2022-11-11T00:41:16;101480.88;;;13.13;81.95
73101;BME280;61288;53.446;-2.266;2022-11-11T00:43:43;101483.50;;;13.13;82.14
73101;BME280;61288;53.446;-2.266;2022-11-11T00:46:09;101482.66;;;13.13;81.91
73101;BME280;61288;53.446;-2.266;2022-11-11T00:48:54;101480.84;;;13.15;81.82
73101;BME280;61288;53.446;-2.266;2022-11-11T00:51:40;101486.06;;;13.15;81.90
73101;BME280;61288;53.446;-2.266;2022-11-11T00:54:13;101485.06;;;13.18;81.48
73101;BME280;61288;53.446;-2.266;2022-11-11T00:56:38;101486.75;;;13.19;81.75
73101;BME280;61288;53.446;-2.266;2022-11-11T00:59:05;101483.19;;;13.21;81.58
73101;BME280;61288;53.446;-2.266;2022-11-11T01:01:33;101475.41;;;13.21;81.43
73101;BME280;61288;53.446;-2.266;2022-11-11T01:04:01;101477.09;;;13.22;81.63
73101;BME280;61288;53.446;-2.266;2022-11-11T01:06:26;101472.72;;;13.23;81.49
73101;BME280;61288;53.446;-2.266;2022-11-11T01:08:52;101463.22;;;13.22;81.53
73101;BME280;61288;53.446;-2.266;2022-11-11T01:11:21;101471.88;;;13.22;81.37
73101;BME280;61288;53.446;-2.266;2022-11-11T01:13:47;101464.91;;;13.23;81.57
73101;BME280;61288;53.446;-2.266;2022-11-11T01:16:21;101467.47;;;13.24;81.30
73101;BME280;61288;53.446;-2.266;2022-11-11T01:18:47;101460.47;;;13.25;81.46
73101;BME280;61288;53.446;-2.266;2022-11-11T01:21:18;101453.59;;;13.24;81.66
73101;BME280;61288;53.446;-2.266;2022-11-11T01:23:45;101460.56;;;13.23;81.72
73101;BME280;61288;53.446;-2.266;2022-11-11T01:28:41;101459.53;;;13.27;81.69
73101;BME280;61288;53.446;-2.266;2022-11-11T01:31:09;101462.91;;;13.29;81.53
73101;BME280;61288;53.446;-2.266;2022-11-11T01:33:35;101467.16;;;13.32;81.53
73101;BME280;61288;53.446;-2.266;2022-11-11T01:36:10;101464.56;;;13.32;81.40
73101;BME280;61288;53.446;-2.266;2022-11-11T01:38:37;101471.38;;;13.35;81.19
73101;BME280;61288;53.446;-2.266;2022-11-11T01:41:05;101469.69;;;13.34;81.51
73101;BME280;61288;53.446;-2.266;2022-11-11T01:43:50;101468.78;;;13.35;81.36
73101;BME280;61288;53.446;-2.266;2022-11-11T01:49:21;101466.91;;;13.38;81.40
73101;BME280;61288;53.446;-2.266;2022-11-11T01:51:58;101468.53;;;13.41;81.11
73101;BME280;61288;53.446;-2.266;2022-11-11T01:57:38;101474.50;;;13.45;80.99
73101;BME280;61288;53.446;-2.266;2022-11-11T02:00:08;101470.94;;;13.47;81.32
73101;BME280;61288;53.446;-2.266;2022-11-11T02:05:10;101467.34;;;13.50;81.32
73101;BME280;61288;53.446;-2.266;2022-11-11T02:07:56;101468.13;;;13.52;81.32
73101;BME280;61288;53.446;-2.266;2022-11-11T02:10:24;101466.38;;;13.52;81.40
73101;BME280;61288;53.446;-2.266;2022-11-11T02:12:52;101475.91;;;13.53;81.35
73101;BME280;61288;53.446;-2.266;2022-11-11T02:15:37;101468.13;;;13.52;81.43
73101;BME280;61288;53.446;-2.266;2022-11-11T02:18:05;101470.75;;;13.52;81.34
73101;BME280;61288;53.446;-2.266;2022-11-11T02:20:35;101471.59;;;13.52;81.35
73101;BME280;61288;53.446;-2.266;2022-11-11T02:23:11;101482.00;;;13.52;81.28
73101;BME280;61288;53.446;-2.266;2022-11-11T02:25:44;101471.59;;;13.52;81.14
73101;BME280;61288;53.446;-2.266;2022-11-11T02:28:12;101485.44;;;13.53;81.33
73101;BME280;61288;53.446;-2.266;2022-11-11T02:30:39;101482.84;;;13.53;81.40
73101;BME280;61288;53.446;-2.266;2022-11-11T02:33:05;101483.63;;;13.55;81.17
73101;BME280;61288;53.446;-2.266;2022-11-11T02:35:34;101483.59;;;13.56;81.05
73101;BME280;61288;53.446;-2.266;2022-11-11T02:38:01;101479.19;;;13.57;80.91
73101;BME280;61288;53.446;-2.266;2022-11-11T02:40:39;101484.50;;;13.55;80.99
73101;BME280;61288;53.446;-2.266;2022-11-11T02:43:30;101486.09;;;13.58;80.80
73101;BME280;61288;53.446;-2.266;2022-11-11T02:45:56;101496.47;;;13.60;80.82
73101;BME280;61288;53.446;-2.266;2022-11-11T02:48:22;101501.69;;;13.60;80.79
73101;BME280;61288;53.446;-2.266;2022-11-11T02:50:48;101503.38;;;13.61;80.99
73101;BME280;61288;53.446;-2.266;2022-11-11T02:53:14;101499.03;;;13.61;80.65
73101;BME280;61288;53.446;-2.266;2022-11-11T02:55:42;101493.81;;;13.61;80.63
73101;BME280;61288;53.446;-2.266;2022-11-11T02:58:11;101498.16;;;13.61;80.93
73101;BME280;61288;53.446;-2.266;2022-11-11T03:00:40;101504.22;;;13.61;80.78
73101;BME280;61288;53.446;-2.266;2022-11-11T03:03:09;101502.53;;;13.60;80.95
73101;BME280;61288;53.446;-2.266;2022-11-11T03:05:37;101501.69;;;13.60;80.79
73101;BME280;61288;53.446;-2.266;2022-11-11T03:08:03;101492.19;;;13.58;80.78
73101;BME280;61288;53.446;-2.266;2022-11-11T03:10:29;101492.22;;;13.57;80.52
73101;BME280;61288;53.446;-2.266;2022-11-11T03:12:56;101493.03;;;13.59;80.78
73101;BME280;61288;53.446;-2.266;2022-11-11T03:15:23;101500.03;;;13.57;80.47
73101;BME280;61288;53.446;-2.266;2022-11-11T03:17:48;101492.31;;;13.55;80.40
73101;BME280;61288;53.446;-2.266;2022-11-11T03:20:17;101490.66;;;13.53;80.37
73101;BME280;61288;53.446;-2.266;2022-11-11T03:23:06;101488.13;;;13.51;80.20
73101;BME280;61288;53.446;-2.266;2022-11-11T03:25:37;101487.28;;;13.51;79.84
73101;BME280;61288;53.446;-2.266;2022-11-11T03:28:11;101482.06;;;13.51;79.53
73101;BME280;61288;53.446;-2.266;2022-11-11T03:30:39;101485.53;;;13.51;79.17
73101;BME280;61288;53.446;-2.266;2022-11-11T03:33:09;101486.22;;;13.55;78.89
73101;BME280;61288;53.446;-2.266;2022-11-11T03:35:38;101477.59;;;13.54;78.83
73101;BME280;61288;53.446;-2.266;2022-11-11T03:38:08;101482.06;;;13.51;79.11
73101;BME280;61288;53.446;-2.266;2022-11-11T03:40:54;101477.84;;;13.48;79.54
73101;BME280;61288;53.446;-2.266;2022-11-11T03:43:26;101475.38;;;13.45;79.54
73101;BME280;61288;53.446;-2.266;2022-11-11T03:45:59;101484.91;;;13.45;79.53
73101;BME280;61288;53.446;-2.266;2022-11-11T03:48:27;101482.31;;;13.45;79.89
73101;BME280;61288;53.446;-2.266;2022-11-11T03:50:53;101478.88;;;13.44;80.15
73101;BME280;61288;53.446;-2.266;2022-11-11T03:53:20;101485.81;;;13.43;79.96
73101;BME280;61288;53.446;-2.266;2022-11-11T03:55:46;101480.63;;;13.43;80.15
73101;BME280;61288;53.446;-2.266;2022-11-11T03:58:13;101482.41;;;13.41;80.30
73101;BME280;61288;53.446;-2.266;2022-11-11T04:00:38;101486.84;;;13.39;80.13
73101;BME280;61288;53.446;-2.266;2022-11-11T04:03:14;101485.06;;;13.40;80.09
73101;BME280;61288;53.446;-2.266;2022-11-11T04:05:58;101487.66;;;13.40;80.08
73101;BME280;61288;53.446;-2.266;2022-11-11T04:08:43;101497.16;;;13.41;79.67
73101;BME280;61288;53.446;-2.266;2022-11-11T04:11:32;101495.41;;;13.43;79.27
73101;BME280;61288;53.446;-2.266;2022-11-11T04:14:02;101497.81;;;13.48;78.65
73101;BME280;61288;53.446;-2.266;2022-11-11T04:16:47;101502.19;;;13.47;78.54
73101;BME280;61288;53.446;-2.266;2022-11-11T04:19:13;101499.63;;;13.46;78.87
73101;BME280;61288;53.446;-2.266;2022-11-11T04:21:57;101504.84;;;13.46;78.48
73101;BME280;61288;53.446;-2.266;2022-11-11T04:24:23;101516.13;;;13.46;78.44
73101;BME280;61288;53.446;-2.266;2022-11-11T04:27:09;101509.13;;;13.47;78.39
73101;BME280;61288;53.446;-2.266;2022-11-11T04:29:36;101501.41;;;13.45;78.72
73101;BME280;61288;53.446;-2.266;2022-11-11T04:32:10;101504.00;;;13.45;78.28
73101;BME280;61288;53.446;-2.266;2022-11-11T04:34:59;101497.94;;;13.45;78.53
73101;BME280;61288;53.446;-2.266;2022-11-11T04:37:27;101508.31;;;13.46;78.57
73101;BME280;61288;53.446;-2.266;2022-11-11T04:39:55;101502.22;;;13.46;78.39
73101;BME280;61288;53.446;-2.266;2022-11-11T04:42:46;101496.19;;;13.45;78.10
73101;BME280;61288;53.446;-2.266;2022-11-11T04:45:13;101499.63;;;13.46;78.48
73101;BME280;61288;53.446;-2.266;2022-11-11T04:50:35;101510.94;;;13.45;78.53
73101;BME280;61288;53.446;-2.266;2022-11-11T04:53:05;101509.22;;;13.45;78.27
73101;BME280;61288;53.446;-2.266;2022-11-11T04:55:32;101508.34;;;13.45;78.65
73101;BME280;61288;53.446;-2.266;2022-11-11T04:58:19;101504.84;;;13.46;78.31
73101;BME280;61288;53.446;-2.266;2022-11-11T05:00:44;101503.16;;;13.45;78.47
73101;BME280;61288;53.446;-2.266;2022-11-11T05:03:11;101505.75;;;13.45;78.55
73101;BME280;61288;53.446;-2.266;2022-11-11T05:05:51;101503.03;;;13.48;78.30
73101;BME280;61288;53.446;-2.266;2022-11-11T05:08:43;101512.59;;;13.47;78.35
73101;BME280;61288;53.446;-2.266;2022-11-11T05:11:23;101512.59;;;13.47;78.42
73101;BME280;61288;53.446;-2.266;2022-11-11T05:13:50;101505.63;;;13.48;78.44
73101;BME280;61288;53.446;-2.266;2022-11-11T05:16:41;101522.88;;;13.50;78.21
73101;BME280;61288;53.446;-2.266;2022-11-11T05:19:27;101516.81;;;13.50;78.33
73101;BME280;61288;53.446;-2.266;2022-11-11T05:22:17;101518.59;;;13.49;78.65
73101;BME280;61288;53.446;-2.266;2022-11-11T05:24:43;101510.78;;;13.49;78.65
73101;BME280;61288;53.446;-2.266;2022-11-11T05:27:28;101509.88;;;13.50;78.11
73101;BME280;61288;53.446;-2.266;2022-11-11T05:29:54;101516.78;;;13.51;78.27
73101;BME280;61288;53.446;-2.266;2022-11-11T05:32:21;101523.78;;;13.49;78.52
73101;BME280;61288;53.446;-2.266;2022-11-11T05:34:47;101521.25;;;13.48;78.77
73101;BME280;61288;53.446;-2.266;2022-11-11T05:37:14;101523.78;;;13.49;78.87
73101;BME280;61288;53.446;-2.266;2022-11-11T05:39:40;101540.31;;;13.48;78.58
73101;BME280;61288;53.446;-2.266;2022-11-11T05:42:06;101532.44;;;13.50;78.42
73101;BME280;61288;53.446;-2.266;2022-11-11T05:44:31;101530.69;;;13.50;78.41
73101;BME280;61288;53.446;-2.266;2022-11-11T05:46:58;101521.19;;;13.49;78.51
73101;BME280;61288;53.446;-2.266;2022-11-11T05:49:24;101522.94;;;13.49;78.58
73101;BME280;61288;53.446;-2.266;2022-11-11T05:51:50;101539.34;;;13.51;78.33
73101;BME280;61288;53.446;-2.266;2022-11-11T05:54:17;101543.75;;;13.49;78.39
73101;BME280;61288;53.446;-2.266;2022-11-11T05:56:43;101534.22;;;13.49;78.60
73101;BME280;61288;53.446;-2.266;2022-11-11T05:59:09;101540.31;;;13.48;78.46
73101;BME280;61288;53.446;-2.266;2022-11-11T06:01:35;101540.25;;;13.50;78.63
73101;BME280;61288;53.446;-2.266;2022-11-11T06:04:02;101547.22;;;13.49;78.65
73101;BME280;61288;53.446;-2.266;2022-11-11T06:06:28;101542.03;;;13.49;78.60
73101;BME280;61288;53.446;-2.266;2022-11-11T06:08:54;101542.97;;;13.47;78.72
73101;BME280;61288;53.446;-2.266;2022-11-11T06:11:19;101548.19;;;13.47;78.86
73101;BME280;61288;53.446;-2.266;2022-11-11T06:13:45;101554.25;;;13.47;78.96
73101;BME280;61288;53.446;-2.266;2022-11-11T06:16:12;101554.25;;;13.47;78.70
73101;BME280;61288;53.446;-2.266;2022-11-11T06:18:37;101559.47;;;13.47;78.70
73101;BME280;61288;53.446;-2.266;2022-11-11T06:21:03;101562.97;;;13.46;78.89
73101;BME280;61288;53.446;-2.266;2022-11-11T06:23:29;101561.31;;;13.43;79.09
73101;BME280;61288;53.446;-2.266;2022-11-11T06:25:55;101570.91;;;13.41;79.43
73101;BME280;61288;53.446;-2.266;2022-11-11T06:28:44;101565.69;;;13.43;79.08
73101;BME280;61288;53.446;-2.266;2022-11-11T06:31:14;101571.75;;;13.43;79.18
73101;BME280;61288;53.446;-2.266;2022-11-11T06:33:40;101558.72;;;13.42;78.77
73101;BME280;61288;53.446;-2.266;2022-11-11T06:36:07;101569.22;;;13.40;78.99
73101;BME280;61288;53.446;-2.266;2022-11-11T06:38:33;101567.44;;;13.41;78.89
73101;BME280;61288;53.446;-2.266;2022-11-11T06:40:58;101571.88;;;13.39;79.14
73101;BME280;61288;53.446;-2.266;2022-11-11T06:43:24;101573.56;;;13.40;79.06
73101;BME280;61288;53.446;-2.266;2022-11-11T06:45:52;101594.34;;;13.43;78.93
73101;BME280;61288;53.446;-2.266;2022-11-11T06:48:18;101579.56;;;13.42;78.89
73101;BME280;61288;53.446;-2.266;2022-11-11T06:50:44;101583.06;;;13.41;79.03
73101;BME280;61288;53.446;-2.266;2022-11-11T06:53:11;101592.56;;;13.42;78.79
73101;BME280;61288;53.446;-2.266;2022-11-11T06:55:37;101583.94;;;13.41;78.75
73101;BME280;61288;53.446;-2.266;2022-11-11T06:58:23;101586.53;;;13.41;78.69
73101;BME280;61288;53.446;-2.266;2022-11-11T07:00:50;101597.00;;;13.40;78.85
73101;BME280;61288;53.446;-2.266;2022-11-11T07:03:18;101592.69;;;13.39;78.93
73101;BME280;61288;53.446;-2.266;2022-11-11T07:05:44;101595.38;;;13.37;78.72
73101;BME280;61288;53.446;-2.266;2022-11-11T07:08:12;101600.59;;;13.37;78.80
73101;BME280;61288;53.446;-2.266;2022-11-11T07:10:40;101610.13;;;13.37;78.75
73101;BME280;61288;53.446;-2.266;2022-11-11T07:13:08;101619.63;;;13.38;78.42
73101;BME280;61288;53.446;-2.266;2022-11-11T07:15:35;101604.13;;;13.35;78.91
73101;BME280;61288;53.446;-2.266;2022-11-11T07:18:01;101604.13;;;13.35;78.76
73101;BME280;61288;53.446;-2.266;2022-11-11T07:20:27;101613.72;;;13.34;78.97
73101;BME280;61288;53.446;-2.266;2022-11-11T07:22:53;101612.81;;;13.35;78.88
73101;BME280;61288;53.446;-2.266;2022-11-11T07:25:18;101623.25;;;13.34;78.93
73101;BME280;61288;53.446;-2.266;2022-11-11T07:27:44;101621.53;;;13.34;78.94
73101;BME280;61288;53.446;-2.266;2022-11-11T07:30:11;101621.56;;;13.33;79.00
73101;BME280;61288;53.446;-2.266;2022-11-11T07:32:43;101619.81;;;13.33;78.87
73101;BME280;61288;53.446;-2.266;2022-11-11T07:35:13;101637.19;;;13.33;78.95
73101;BME280;61288;53.446;-2.266;2022-11-11T07:37:39;101631.97;;;13.33;79.06
73101;BME280;61288;53.446;-2.266;2022-11-11T07:40:05;101630.28;;;13.32;79.27
73101;BME280;61288;53.446;-2.266;2022-11-11T07:42:35;101628.53;;;13.32;79.04
73101;BME280;61288;53.446;-2.266;2022-11-11T07:45:02;101641.47;;;13.34;79.14
73101;BME280;61288;53.446;-2.266;2022-11-11T07:47:27;101649.28;;;13.34;79.05
73101;BME280;61288;53.446;-2.266;2022-11-11T07:49:53;101657.09;;;13.34;78.91
73101;BME280;61288;53.446;-2.266;2022-11-11T07:52:18;101664.00;;;13.35;79.00
73101;BME280;61288;53.446;-2.266;2022-11-11T07:54:44;101661.41;;;13.35;78.96
73101;BME280;61288;53.446;-2.266;2022-11-11T07:57:10;101660.50;;;13.36;78.98
73101;BME280;61288;53.446;-2.266;2022-11-11T07:59:36;101670.88;;;13.37;79.01
73101;BME280;61288;53.446;-2.266;2022-11-11T08:02:01;101674.31;;;13.38;79.07
73101;BME280;61288;53.446;-2.266;2022-11-11T08:04:27;101679.50;;;13.38;79.24
73101;BME280;61288;53.446;-2.266;2022-11-11T08:06:53;101681.28;;;13.37;79.03
73101;BME280;61288;53.446;-2.266;2022-11-11T08:09:20;101682.19;;;13.36;79.21
73101;BME280;61288;53.446;-2.266;2022-11-11T08:11:45;101682.09;;;13.38;79.22
73101;BME280;61288;53.446;-2.266;2022-11-11T08:14:29;101701.25;;;13.37;79.48
73101;BME280;61288;53.446;-2.266;2022-11-11T08:16:55;101698.53;;;13.40;79.14
73101;BME280;61288;53.446;-2.266;2022-11-11T08:19:20;101702.03;;;13.39;79.31
73101;BME280;61288;53.446;-2.266;2022-11-11T08:21:46;101706.41;;;13.38;79.36
73101;BME280;61288;53.446;-2.266;2022-11-11T08:24:11;101704.63;;;13.39;79.51
73101;BME280;61288;53.446;-2.266;2022-11-11T08:26:37;101703.81;;;13.38;79.67
73101;BME280;61288;53.446;-2.266;2022-11-11T08:29:02;101711.53;;;13.40;79.59
73101;BME280;61288;53.446;-2.266;2022-11-11T08:31:28;101729.88;;;13.37;79.46
73101;BME280;61288;53.446;-2.266;2022-11-11T08:33:53;101720.31;;;13.37;79.68
73101;BME280;61288;53.446;-2.266;2022-11-11T08:36:19;101729.03;;;13.36;79.86
73101;BME280;61288;53.446;-2.266;2022-11-11T08:38:45;101727.28;;;13.37;79.64
73101;BME280;61288;53.446;-2.266;2022-11-11T08:41:10;101728.13;;;13.37;79.49
73101;BME280;61288;53.446;-2.266;2022-11-11T08:43:36;101722.84;;;13.39;79.32
73101;BME280;61288;53.446;-2.266;2022-11-11T08:46:03;101729.75;;;13.40;79.42
73101;BME280;61288;53.446;-2.266;2022-11-11T08:48:30;101727.22;;;13.38;79.59
73101;BME280;61288;53.446;-2.266;2022-11-11T08:50:56;101729.88;;;13.37;79.48
73101;BME280;61288;53.446;-2.266;2022-11-11T08:53:22;101728.03;;;13.40;79.49
73101;BME280;61288;53.446;-2.266;2022-11-11T08:55:48;101733.28;;;13.39;79.67
73101;BME280;61288;53.446;-2.266;2022-11-11T08:58:13;101722.03;;;13.38;79.60
73101;BME280;61288;53.446;-2.266;2022-11-11T09:00:39;101741.94;;;13.39;79.60
73101;BME280;61288;53.446;-2.266;2022-11-11T09:03:08;101741.94;;;13.39;79.66
73101;BME280;61288;53.446;-2.266;2022-11-11T09:05:37;101739.38;;;13.38;79.75
73101;BME280;61288;53.446;-2.266;2022-11-11T09:08:04;101732.44;;;13.38;79.92
73101;BME280;61288;53.446;-2.266;2022-11-11T09:10:35;101735.84;;;13.40;79.51
73101;BME280;61288;53.446;-2.266;2022-11-11T09:13:01;101735.75;;;13.42;79.70
73101;BME280;61288;53.446;-2.266;2022-11-11T09:15:27;101729.72;;;13.43;79.87
73101;BME280;61288;53.446;-2.266;2022-11-11T09:17:54;101742.72;;;13.43;79.99
73101;BME280;61288;53.446;-2.266;2022-11-11T09:20:21;101737.53;;;13.43;79.78
73101;BME280;61288;53.446;-2.266;2022-11-11T09:22:48;101728.72;;;13.46;79.75
73101;BME280;61288;53.446;-2.266;2022-11-11T09:25:14;101739.81;;;13.51;79.61
73101;BME280;61288;53.446;-2.266;2022-11-11T09:27:40;101736.19;;;13.55;79.85
73101;BME280;61288;53.446;-2.266;2022-11-11T09:30:06;101743.91;;;13.58;79.22
73101;BME280;61288;53.446;-2.266;2022-11-11T09:32:35;101736.94;;;13.58;79.23
73101;BME280;61288;53.446;-2.266;2022-11-11T09:35:01;101730.84;;;13.60;79.43
73101;BME280;61288;53.446;-2.266;2022-11-11T09:37:27;101740.34;;;13.61;79.49
73101;BME280;61288;53.446;-2.266;2022-11-11T09:39:52;101736.03;;;13.60;79.50
73101;BME280;61288;53.446;-2.266;2022-11-11T09:42:32;101742.03;;;13.62;79.65
73101;BME280;61288;53.446;-2.266;2022-11-11T09:48:33;101740.19;;;13.65;79.35
73101;BME280;61288;53.446;-2.266;2022-11-11T09:51:01;101756.53;;;13.69;79.05
73101;BME280;61288;53.446;-2.266;2022-11-11T09:53:32;101760.84;;;13.70;79.13
73101;BME280;61288;53.446;-2.266;2022-11-11T09:56:11;101763.28;;;13.75;78.74
73101;BME280;61288;53.446;-2.266;2022-11-11T09:59:09;101773.66;;;13.76;78.70
73101;BME280;61288;53.446;-2.266;2022-11-11T10:01:43;101767.53;;;13.77;79.09
73101;BME280;61288;53.446;-2.266;2022-11-11T10:04:45;101775.25;;;13.80;78.59
73101;BME280;61288;53.446;-2.266;2022-11-11T10:10:17;101784.69;;;13.83;78.28
73101;BME280;61288;53.446;-2.266;2022-11-11T10:12:55;101778.56;;;13.84;78.14
73101;BME280;61288;53.446;-2.266;2022-11-11T10:15:22;101781.91;;;13.88;77.88
73101;BME280;61288;53.446;-2.266;2022-11-11T10:18:14;101795.78;;;13.88;78.00
73101;BME280;61288;53.446;-2.266;2022-11-11T10:20:48;101790.44;;;13.91;77.89
73101;BME280;61288;53.446;-2.266;2022-11-11T10:23:21;101788.66;;;13.93;78.09
73101;BME280;61288;53.446;-2.266;2022-11-11T10:25:58;101795.50;;;13.96;78.15
73101;BME280;61288;53.446;-2.266;2022-11-11T10:28:32;101799.81;;;13.97;78.07
73101;BME280;61288;53.446;-2.266;2022-11-11T10:31:02;101802.34;;;13.98;78.19
73101;BME280;61288;53.446;-2.266;2022-11-11T10:33:37;101807.50;;;14.00;77.97
73101;BME280;61288;53.446;-2.266;2022-11-11T10:36:12;101802.16;;;14.03;77.76
73101;BME280;61288;53.446;-2.266;2022-11-11T10:41:20;101811.56;;;14.07;78.02
73101;BME280;61288;53.446;-2.266;2022-11-11T10:43:48;101805.44;;;14.08;77.99
73101;BME280;61288;53.446;-2.266;2022-11-11T10:51:45;101812.06;;;14.17;77.71
73101;BME280;61288;53.446;-2.266;2022-11-11T10:54:16;101814.63;;;14.19;77.75
73101;BME280;61288;53.446;-2.266;2022-11-11T10:59:25;101819.78;;;14.20;77.98
73101;BME280;61288;53.446;-2.266;2022-11-11T11:04:30;101830.09;;;14.23;78.03
73101;BME280;61288;53.446;-2.266;2022-11-11T11:06:59;101822.22;;;14.25;78.86
73101;BME280;61288;53.446;-2.266;2022-11-11T11:12:29;101822.97;;;14.28;78.02
73101;BME280;61288;53.446;-2.266;2022-11-11T11:14:55;101821.19;;;14.29;78.06
73101;BME280;61288;53.446;-2.266;2022-11-11T11:17:54;101824.66;;;14.29;78.20
73101;BME280;61288;53.446;-2.266;2022-11-11T11:20:21;101822.84;;;14.32;78.85
73101;BME280;61288;53.446;-2.266;2022-11-11T11:22:52;101828.88;;;14.32;78.47
73101;BME280;61288;53.446;-2.266;2022-11-11T11:25:20;101828.06;;;14.32;78.72
73101;BME280;61288;53.446;-2.266;2022-11-11T11:27:51;101829.00;;;14.29;79.06
73101;BME280;61288;53.446;-2.266;2022-11-11T11:30:19;101825.56;;;14.28;79.41
73101;BME280;61288;53.446;-2.266;2022-11-11T11:33:03;101825.44;;;14.32;79.06
73101;BME280;61288;53.446;-2.266;2022-11-11T11:35:36;101827.16;;;14.33;79.10
73101;BME280;61288;53.446;-2.266;2022-11-11T11:38:03;101828.88;;;14.32;79.14
73101;BME280;61288;53.446;-2.266;2022-11-11T11:40:55;101816.75;;;14.31;79.48
73101;BME280;61288;53.446;-2.266;2022-11-11T11:43:35;101808.94;;;14.31;79.37
73101;BME280;61288;53.446;-2.266;2022-11-11T11:46:04;101805.38;;;14.34;79.15
73101;BME280;61288;53.446;-2.266;2022-11-11T11:48:41;101806.97;;;14.38;78.83
73101;BME280;61288;53.446;-2.266;2022-11-11T11:51:42;101812.09;;;14.39;78.81
73101;BME280;61288;53.446;-2.266;2022-11-11T11:57:19;101799.81;;;14.43;78.55
73101;BME280;61288;53.446;-2.266;2022-11-11T12:00:00;101793.63;;;14.46;78.16
73101;BME280;61288;53.446;-2.266;2022-11-11T12:11:08;101806.34;;;14.53;77.08
73101;BME280;61288;53.446;-2.266;2022-11-11T12:14:04;101800.16;;;14.56;77.24
73101;BME280;61288;53.446;-2.266;2022-11-11T12:19:24;101800.03;;;14.59;76.60
73101;BME280;61288;53.446;-2.266;2022-11-11T12:27:34;101796.84;;;14.75;75.92
73101;BME280;61288;53.446;-2.266;2022-11-11T12:30:19;101803.53;;;14.82;75.10
73101;BME280;61288;53.446;-2.266;2022-11-11T12:37:01;101803.78;;;14.96;74.58
73101;BME280;61288;53.446;-2.266;2022-11-11T12:39:44;101804.91;;;15.11;74.24
73101;BME280;61288;53.446;-2.266;2022-11-11T12:45:17;101810.09;;;15.13;73.39
73101;BME280;61288;53.446;-2.266;2022-11-11T12:50:50;101802.13;;;15.16;73.13
73101;BME280;61288;53.446;-2.266;2022-11-11T13:03:50;101812.16;;;15.05;73.60
73101;BME280;61288;53.446;-2.266;2022-11-11T13:15:21;101815.09;;;14.97;72.39
73101;BME280;61288;53.446;-2.266;2022-11-11T13:17:48;101824.81;;;14.93;72.96
73101;BME280;61288;53.446;-2.266;2022-11-11T13:20:41;101817.84;;;14.94;72.50
73101;BME280;61288;53.446;-2.266;2022-11-11T13:23:09;101825.66;;;14.94;73.09
73101;BME280;61288;53.446;-2.266;2022-11-11T13:25:39;101824.88;;;14.92;73.52
73101;BME280;61288;53.446;-2.266;2022-11-11T13:28:25;101829.28;;;14.90;73.85
73101;BME280;61288;53.446;-2.266;2022-11-11T13:33:39;101842.28;;;14.91;73.91
73101;BME280;61288;53.446;-2.266;2022-11-11T13:36:10;101837.13;;;14.90;73.29
73101;BME280;61288;53.446;-2.266;2022-11-11T13:38:45;101838.16;;;14.85;73.49
73101;BME280;61288;53.446;-2.266;2022-11-11T13:41:25;101836.53;;;14.83;73.82
73101;BME280;61288;53.446;-2.266;2022-11-11T13:43:52;101851.41;;;14.81;74.06
73101;BME280;61288;53.446;-2.266;2022-11-11T13:46:35;101846.31;;;14.78;73.32
73101;BME280;61288;53.446;-2.266;2022-11-11T13:49:04;101852.44;;;14.77;73.56
73101;BME280;61288;53.446;-2.266;2022-11-11T13:54:05;101852.59;;;14.72;74.39
73101;BME280;61288;53.446;-2.266;2022-11-11T13:56:43;101853.44;;;14.72;73.73
73101;BME280;61288;53.446;-2.266;2022-11-11T13:59:31;101856.13;;;14.71;74.19
73101;BME280;61288;53.446;-2.266;2022-11-11T14:15:39;101865.00;;;14.65;74.59
73101;BME280;61288;53.446;-2.266;2022-11-11T14:18:10;101860.69;;;14.64;73.87
73101;BME280;61288;53.446;-2.266;2022-11-11T14:20:40;101860.69;;;14.64;74.04
73101;BME280;61288;53.446;-2.266;2022-11-11T14:28:49;101865.09;;;14.64;73.69
73101;BME280;61288;53.446;-2.266;2022-11-11T14:33:59;101865.13;;;14.62;74.11
73101;BME280;61288;53.446;-2.266;2022-11-11T14:41:50;101852.09;;;14.62;73.36
73101;BME280;61288;53.446;-2.266;2022-11-11T14:44:38;101854.78;;;14.61;73.38
73101;BME280;61288;53.446;-2.266;2022-11-11T14:49:46;101855.69;;;14.59;73.84
73101;BME280;61288;53.446;-2.266;2022-11-11T14:52:36;101852.16;;;14.61;73.33
73101;BME280;61288;53.446;-2.266;2022-11-11T14:55:21;101853.91;;;14.60;74.06
73101;BME280;61288;53.446;-2.266;2022-11-11T14:57:50;101855.69;;;14.59;74.09
73101;BME280;61288;53.446;-2.266;2022-11-11T15:00:27;101854.81;;;14.59;74.34
73101;BME280;61288;53.446;-2.266;2022-11-11T15:08:23;101867.03;;;14.58;74.41